sensor_id;sensor_type;location;lat;lon;timestamp;temperature;humidity
53073;DHT22;38955;48.916;2.336;2023-07-30T00:01:28;19.30;99.90
53073;DHT22;38955;48.916;2.336;2023-07-30T00:03:32;19.20;99.90
53073;DHT22;38955;48.916;2.336;2023-07-30T00:05:34;19.10;99.90
53073;DHT22;38955;48.916;2.336;2023-07-30T00:07:36;19.10;99.90
53073;DHT22;38955;48.916;2.336;2023-07-30T00:09:38;19.10;99.90
53073;DHT22;38955;48.916;2.336;2023-07-30T00:11:41;19.10;99.90
53073;DHT22;38955;48.916;2.336;2023-07-30T00:13:43;19.10;99.90
53073;DHT22;38955;48.916;2.336;2023-07-30T00:15:46;19.10;99.90
53073;DHT22;38955;48.916;2.336;2023-07-30T00:17:48;19.10;99.90
53073;DHT22;38955;48.916;2.336;2023-07-30T00:19:52;19.00;99.90
53073;DHT22;38955;48.916;2.336;2023-07-30T00:21:54;19.00;99.90
53073;DHT22;38955;48.916;2.336;2023-07-30T00:23:56;19.00;99.90
53073;DHT22;38955;48.916;2.336;2023-07-30T00:25:58;19.00;99.90
53073;DHT22;38955;48.916;2.336;2023-07-30T00:28:00;18.90;99.90
53073;DHT22;38955;48.916;2.336;2023-07-30T00:30:03;19.00;99.90
53073;DHT22;38955;48.916;2.336;2023-07-30T00:32:06;19.00;99.90
53073;DHT22;38955;48.916;2.336;2023-07-30T00:34:08;18.90;99.90
53073;DHT22;38955;48.916;2.336;2023-07-30T00:36:11;19.00;99.90
53073;DHT22;38955;48.916;2.336;2023-07-30T00:38:13;18.90;99.90
53073;DHT22;38955;48.916;2.336;2023-07-30T00:40:17;18.90;99.90
53073;DHT22;38955;48.916;2.336;2023-07-30T00:42:20;18.80;99.90
53073;DHT22;38955;48.916;2.336;2023-07-30T00:44:22;18.90;99.90
53073;DHT22;38955;48.916;2.336;2023-07-30T00:46:28;18.80;99.90
53073;DHT22;38955;48.916;2.336;2023-07-30T00:48:30;18.80;99.90
53073;DHT22;38955;48.916;2.336;2023-07-30T00:50:33;18.80;99.90
53073;DHT22;38955;48.916;2.336;2023-07-30T00:52:37;18.80;99.90
53073;DHT22;38955;48.916;2.336;2023-07-30T00:54:39;18.80;99.90
53073;DHT22;38955;48.916;2.336;2023-07-30T00:56:49;18.70;99.90
53073;DHT22;38955;48.916;2.336;2023-07-30T00:58:52;18.80;99.90
53073;DHT22;38955;48.916;2.336;2023-07-30T01:00:55;18.70;99.90
53073;DHT22;38955;48.916;2.336;2023-07-30T01:02:58;18.70;99.90
53073;DHT22;38955;48.916;2.336;2023-07-30T01:05:01;18.70;99.90
53073;DHT22;38955;48.916;2.336;2023-07-30T01:07:04;18.80;99.90
53073;DHT22;38955;48.916;2.336;2023-07-30T01:09:07;18.80;99.90
53073;DHT22;38955;48.916;2.336;2023-07-30T01:11:10;18.80;99.90
53073;DHT22;38955;48.916;2.336;2023-07-30T01:13:12;18.80;99.90
53073;DHT22;38955;48.916;2.336;2023-07-30T01:15:15;18.80;99.90
53073;DHT22;38955;48.916;2.336;2023-07-30T01:17:18;18.80;99.90
53073;DHT22;38955;48.916;2.336;2023-07-30T01:19:20;18.70;99.90
53073;DHT22;38955;48.916;2.336;2023-07-30T01:21:23;18.60;99.90
53073;DHT22;38955;48.916;2.336;2023-07-30T01:23:26;18.70;99.90
53073;DHT22;38955;48.916;2.336;2023-07-30T01:25:30;18.60;99.90
53073;DHT22;38955;48.916;2.336;2023-07-30T01:27:39;18.60;99.90
53073;DHT22;38955;48.916;2.336;2023-07-30T01:29:49;18.60;99.90
53073;DHT22;38955;48.916;2.336;2023-07-30T01:31:56;18.50;99.90
53073;DHT22;38955;48.916;2.336;2023-07-30T01:34:00;18.50;99.90
53073;DHT22;38955;48.916;2.336;2023-07-30T01:36:04;18.40;99.90
53073;DHT22;38955;48.916;2.336;2023-07-30T01:38:08;18.40;99.90
53073;DHT22;38955;48.916;2.336;2023-07-30T01:40:12;18.40;99.90
53073;DHT22;38955;48.916;2.336;2023-07-30T01:42:15;18.50;99.90
53073;DHT22;38955;48.916;2.336;2023-07-30T01:44:17;18.50;99.90
53073;DHT22;38955;48.916;2.336;2023-07-30T01:46:19;18.50;99.90
53073;DHT22;38955;48.916;2.336;2023-07-30T01:48:21;18.50;99.90
53073;DHT22;38955;48.916;2.336;2023-07-30T01:50:24;18.50;99.90
53073;DHT22;38955;48.916;2.336;2023-07-30T01:52:26;18.50;99.90
53073;DHT22;38955;48.916;2.336;2023-07-30T01:54:29;18.50;99.90
53073;DHT22;38955;48.916;2.336;2023-07-30T01:56:31;18.50;99.90
53073;DHT22;38955;48.916;2.336;2023-07-30T01:58:33;18.50;99.90
53073;DHT22;38955;48.916;2.336;2023-07-30T02:00:36;18.50;99.90
53073;DHT22;38955;48.916;2.336;2023-07-30T02:02:38;18.50;99.90
53073;DHT22;38955;48.916;2.336;2023-07-30T02:04:40;18.50;99.90
53073;DHT22;38955;48.916;2.336;2023-07-30T02:06:42;18.50;99.90
53073;DHT22;38955;48.916;2.336;2023-07-30T02:08:44;18.40;99.90
53073;DHT22;38955;48.916;2.336;2023-07-30T02:10:55;18.30;99.90
53073;DHT22;38955;48.916;2.336;2023-07-30T02:12:58;18.30;99.90
53073;DHT22;38955;48.916;2.336;2023-07-30T02:15:00;18.30;99.90
53073;DHT22;38955;48.916;2.336;2023-07-30T02:17:02;18.30;99.90
53073;DHT22;38955;48.916;2.336;2023-07-30T02:19:04;18.30;99.90
53073;DHT22;38955;48.916;2.336;2023-07-30T02:21:06;18.20;99.90
53073;DHT22;38955;48.916;2.336;2023-07-30T02:23:08;18.20;99.90
53073;DHT22;38955;48.916;2.336;2023-07-30T02:25:10;18.20;99.90
53073;DHT22;38955;48.916;2.336;2023-07-30T02:27:15;18.20;99.90
53073;DHT22;38955;48.916;2.336;2023-07-30T02:29:17;18.20;99.90
53073;DHT22;38955;48.916;2.336;2023-07-30T02:31:19;18.20;99.90
53073;DHT22;38955;48.916;2.336;2023-07-30T02:33:21;18.20;99.90
53073;DHT22;38955;48.916;2.336;2023-07-30T02:35:23;18.20;99.90
53073;DHT22;38955;48.916;2.336;2023-07-30T02:37:25;18.20;99.90
53073;DHT22;38955;48.916;2.336;2023-07-30T02:39:27;18.10;99.90
53073;DHT22;38955;48.916;2.336;2023-07-30T02:41:29;18.10;99.90
53073;DHT22;38955;48.916;2.336;2023-07-30T02:43:33;18.00;99.90
53073;DHT22;38955;48.916;2.336;2023-07-30T02:45:35;18.00;99.90
53073;DHT22;38955;48.916;2.336;2023-07-30T02:47:37;18.10;99.90
53073;DHT22;38955;48.916;2.336;2023-07-30T02:49:39;18.00;99.90
53073;DHT22;38955;48.916;2.336;2023-07-30T02:51:41;17.90;99.90
53073;DHT22;38955;48.916;2.336;2023-07-30T02:53:45;17.90;99.90
53073;DHT22;38955;48.916;2.336;2023-07-30T02:55:47;17.90;99.90
53073;DHT22;38955;48.916;2.336;2023-07-30T02:57:49;17.90;99.90
53073;DHT22;38955;48.916;2.336;2023-07-30T02:59:52;17.90;99.90
53073;DHT22;38955;48.916;2.336;2023-07-30T03:01:54;17.80;99.90
53073;DHT22;38955;48.916;2.336;2023-07-30T03:03:56;17.80;99.90
53073;DHT22;38955;48.916;2.336;2023-07-30T03:05:58;17.80;99.90
53073;DHT22;38955;48.916;2.336;2023-07-30T03:08:00;17.80;99.90
53073;DHT22;38955;48.916;2.336;2023-07-30T03:10:03;17.80;99.90
53073;DHT22;38955;48.916;2.336;2023-07-30T03:12:05;17.70;99.90
53073;DHT22;38955;48.916;2.336;2023-07-30T03:14:08;17.80;99.90
53073;DHT22;38955;48.916;2.336;2023-07-30T03:16:11;17.80;99.90
53073;DHT22;38955;48.916;2.336;2023-07-30T03:18:13;17.70;99.90
53073;DHT22;38955;48.916;2.336;2023-07-30T03:20:15;17.70;99.90
53073;DHT22;38955;48.916;2.336;2023-07-30T03:22:19;17.70;99.90
53073;DHT22;38955;48.916;2.336;2023-07-30T03:24:21;17.70;99.90
53073;DHT22;38955;48.916;2.336;2023-07-30T03:26:23;17.60;99.90
53073;DHT22;38955;48.916;2.336;2023-07-30T03:28:25;17.50;99.90
53073;DHT22;38955;48.916;2.336;2023-07-30T03:30:27;17.50;99.90
53073;DHT22;38955;48.916;2.336;2023-07-30T03:32:30;17.50;99.90
53073;DHT22;38955;48.916;2.336;2023-07-30T03:34:32;17.50;99.90
53073;DHT22;38955;48.916;2.336;2023-07-30T03:36:35;17.50;99.90
53073;DHT22;38955;48.916;2.336;2023-07-30T03:38:37;17.50;99.90
53073;DHT22;38955;48.916;2.336;2023-07-30T03:40:39;17.50;99.90
53073;DHT22;38955;48.916;2.336;2023-07-30T03:42:41;17.50;99.90
53073;DHT22;38955;48.916;2.336;2023-07-30T03:44:43;17.40;99.90
53073;DHT22;38955;48.916;2.336;2023-07-30T03:46:46;17.50;99.90
53073;DHT22;38955;48.916;2.336;2023-07-30T03:48:49;17.50;99.90
53073;DHT22;38955;48.916;2.336;2023-07-30T03:50:52;17.50;99.90
53073;DHT22;38955;48.916;2.336;2023-07-30T03:52:54;17.50;99.90
53073;DHT22;38955;48.916;2.336;2023-07-30T03:54:56;17.60;99.90
53073;DHT22;38955;48.916;2.336;2023-07-30T03:56:58;17.50;99.90
53073;DHT22;38955;48.916;2.336;2023-07-30T03:59:00;17.60;99.90
53073;DHT22;38955;48.916;2.336;2023-07-30T04:01:02;17.50;99.90
53073;DHT22;38955;48.916;2.336;2023-07-30T04:03:04;17.50;99.90
53073;DHT22;38955;48.916;2.336;2023-07-30T04:05:08;17.50;99.90
53073;DHT22;38955;48.916;2.336;2023-07-30T04:07:10;17.50;99.90
53073;DHT22;38955;48.916;2.336;2023-07-30T04:09:12;17.50;99.90
53073;DHT22;38955;48.916;2.336;2023-07-30T04:11:14;17.50;99.90
53073;DHT22;38955;48.916;2.336;2023-07-30T04:13:16;17.50;99.90
53073;DHT22;38955;48.916;2.336;2023-07-30T04:15:18;17.50;99.90
53073;DHT22;38955;48.916;2.336;2023-07-30T04:17:20;17.40;99.90
53073;DHT22;38955;48.916;2.336;2023-07-30T04:19:22;17.50;99.90
53073;DHT22;38955;48.916;2.336;2023-07-30T04:21:26;17.50;99.90
53073;DHT22;38955;48.916;2.336;2023-07-30T04:23:28;17.50;99.90
53073;DHT22;38955;48.916;2.336;2023-07-30T04:25:30;17.50;99.90
53073;DHT22;38955;48.916;2.336;2023-07-30T04:27:32;17.50;99.90
53073;DHT22;38955;48.916;2.336;2023-07-30T04:29:35;17.50;99.90
53073;DHT22;38955;48.916;2.336;2023-07-30T04:31:38;17.50;99.90
53073;DHT22;38955;48.916;2.336;2023-07-30T04:33:40;17.40;99.90
53073;DHT22;38955;48.916;2.336;2023-07-30T04:35:42;17.40;99.90
53073;DHT22;38955;48.916;2.336;2023-07-30T04:37:46;17.40;99.90
53073;DHT22;38955;48.916;2.336;2023-07-30T04:39:48;17.40;99.90
53073;DHT22;38955;48.916;2.336;2023-07-30T04:41:50;17.50;99.90
53073;DHT22;38955;48.916;2.336;2023-07-30T04:43:53;17.40;99.90
53073;DHT22;38955;48.916;2.336;2023-07-30T04:45:55;17.40;99.90
53073;DHT22;38955;48.916;2.336;2023-07-30T04:47:57;17.40;99.90
53073;DHT22;38955;48.916;2.336;2023-07-30T04:49:59;17.40;99.90
53073;DHT22;38955;48.916;2.336;2023-07-30T04:52:01;17.40;99.90
53073;DHT22;38955;48.916;2.336;2023-07-30T04:54:04;17.40;99.90
53073;DHT22;38955;48.916;2.336;2023-07-30T04:56:06;17.40;99.90
53073;DHT22;38955;48.916;2.336;2023-07-30T04:58:08;17.50;99.90
53073;DHT22;38955;48.916;2.336;2023-07-30T05:00:11;17.50;99.90
53073;DHT22;38955;48.916;2.336;2023-07-30T05:02:14;17.50;99.90
53073;DHT22;38955;48.916;2.336;2023-07-30T05:04:16;17.50;99.90
53073;DHT22;38955;48.916;2.336;2023-07-30T05:06:18;17.40;99.90
53073;DHT22;38955;48.916;2.336;2023-07-30T05:08:20;17.50;99.90
53073;DHT22;38955;48.916;2.336;2023-07-30T05:10:23;17.40;99.90
53073;DHT22;38955;48.916;2.336;2023-07-30T05:12:25;17.40;99.90
53073;DHT22;38955;48.916;2.336;2023-07-30T05:14:27;17.40;99.90
53073;DHT22;38955;48.916;2.336;2023-07-30T05:16:29;17.30;99.90
53073;DHT22;38955;48.916;2.336;2023-07-30T05:18:31;17.40;99.90
53073;DHT22;38955;48.916;2.336;2023-07-30T05:20:34;17.40;99.90
53073;DHT22;38955;48.916;2.336;2023-07-30T05:22:35;17.30;99.90
53073;DHT22;38955;48.916;2.336;2023-07-30T05:24:37;17.40;99.90
53073;DHT22;38955;48.916;2.336;2023-07-30T05:26:41;17.40;99.90
53073;DHT22;38955;48.916;2.336;2023-07-30T05:28:43;17.40;99.90
53073;DHT22;38955;48.916;2.336;2023-07-30T05:30:45;17.40;99.90
53073;DHT22;38955;48.916;2.336;2023-07-30T05:32:47;17.50;99.90
53073;DHT22;38955;48.916;2.336;2023-07-30T05:34:50;17.50;99.90
53073;DHT22;38955;48.916;2.336;2023-07-30T05:36:52;17.50;99.90
53073;DHT22;38955;48.916;2.336;2023-07-30T05:38:54;17.50;99.90
53073;DHT22;38955;48.916;2.336;2023-07-30T05:40:56;17.40;99.90
53073;DHT22;38955;48.916;2.336;2023-07-30T05:42:59;17.40;99.90
53073;DHT22;38955;48.916;2.336;2023-07-30T05:45:02;17.40;99.90
53073;DHT22;38955;48.916;2.336;2023-07-30T05:47:05;17.50;99.90
53073;DHT22;38955;48.916;2.336;2023-07-30T05:49:07;17.60;99.90
53073;DHT22;38955;48.916;2.336;2023-07-30T05:51:09;17.50;99.90
53073;DHT22;38955;48.916;2.336;2023-07-30T05:53:11;17.50;99.90
53073;DHT22;38955;48.916;2.336;2023-07-30T05:55:14;17.50;99.90
53073;DHT22;38955;48.916;2.336;2023-07-30T05:57:16;17.50;99.90
53073;DHT22;38955;48.916;2.336;2023-07-30T05:59:20;17.50;99.90
53073;DHT22;38955;48.916;2.336;2023-07-30T06:01:27;17.50;99.90
53073;DHT22;38955;48.916;2.336;2023-07-30T06:03:29;17.50;99.90
53073;DHT22;38955;48.916;2.336;2023-07-30T06:05:31;17.50;99.90
53073;DHT22;38955;48.916;2.336;2023-07-30T06:07:33;17.60;99.90
53073;DHT22;38955;48.916;2.336;2023-07-30T06:09:35;17.60;99.90
53073;DHT22;38955;48.916;2.336;2023-07-30T06:11:37;17.60;99.90
53073;DHT22;38955;48.916;2.336;2023-07-30T06:13:39;17.60;99.90
53073;DHT22;38955;48.916;2.336;2023-07-30T06:15:43;17.70;99.90
53073;DHT22;38955;48.916;2.336;2023-07-30T06:17:45;17.70;99.90
53073;DHT22;38955;48.916;2.336;2023-07-30T06:19:47;17.80;99.90
53073;DHT22;38955;48.916;2.336;2023-07-30T06:21:49;17.80;99.90
53073;DHT22;38955;48.916;2.336;2023-07-30T06:23:51;17.80;99.90
53073;DHT22;38955;48.916;2.336;2023-07-30T06:25:53;17.80;99.90
53073;DHT22;38955;48.916;2.336;2023-07-30T06:27:55;17.80;99.90
53073;DHT22;38955;48.916;2.336;2023-07-30T06:30:00;17.80;99.90
53073;DHT22;38955;48.916;2.336;2023-07-30T06:32:05;17.80;99.90
53073;DHT22;38955;48.916;2.336;2023-07-30T06:34:07;17.90;99.90
53073;DHT22;38955;48.916;2.336;2023-07-30T06:36:09;17.90;99.90
53073;DHT22;38955;48.916;2.336;2023-07-30T06:38:11;17.90;99.90
53073;DHT22;38955;48.916;2.336;2023-07-30T06:40:13;18.00;99.90
53073;DHT22;38955;48.916;2.336;2023-07-30T06:42:15;18.10;99.90
53073;DHT22;38955;48.916;2.336;2023-07-30T06:44:18;18.10;99.90
53073;DHT22;38955;48.916;2.336;2023-07-30T06:46:20;18.20;99.90
53073;DHT22;38955;48.916;2.336;2023-07-30T06:48:23;18.20;99.90
53073;DHT22;38955;48.916;2.336;2023-07-30T06:50:25;18.20;99.90
53073;DHT22;38955;48.916;2.336;2023-07-30T06:52:27;18.40;99.90
53073;DHT22;38955;48.916;2.336;2023-07-30T06:54:30;18.60;99.90
53073;DHT22;38955;48.916;2.336;2023-07-30T06:56:32;18.70;99.90
53073;DHT22;38955;48.916;2.336;2023-07-30T06:58:34;18.80;99.90
53073;DHT22;38955;48.916;2.336;2023-07-30T07:00:38;18.80;99.90
53073;DHT22;38955;48.916;2.336;2023-07-30T07:02:40;18.80;99.90
53073;DHT22;38955;48.916;2.336;2023-07-30T07:04:44;18.80;99.90
53073;DHT22;38955;48.916;2.336;2023-07-30T07:06:46;18.80;99.90
53073;DHT22;38955;48.916;2.336;2023-07-30T07:08:48;18.90;99.90
53073;DHT22;38955;48.916;2.336;2023-07-30T07:10:50;19.00;99.90
53073;DHT22;38955;48.916;2.336;2023-07-30T07:12:52;19.10;99.90
53073;DHT22;38955;48.916;2.336;2023-07-30T07:14:54;19.20;99.90
53073;DHT22;38955;48.916;2.336;2023-07-30T07:17:00;19.20;99.90
53073;DHT22;38955;48.916;2.336;2023-07-30T07:19:02;19.30;99.90
53073;DHT22;38955;48.916;2.336;2023-07-30T07:21:05;19.30;99.90
53073;DHT22;38955;48.916;2.336;2023-07-30T07:23:08;19.40;99.30
53073;DHT22;38955;48.916;2.336;2023-07-30T07:25:14;19.60;99.20
53073;DHT22;38955;48.916;2.336;2023-07-30T07:27:16;19.70;99.30
53073;DHT22;38955;48.916;2.336;2023-07-30T07:29:18;19.70;99.40
53073;DHT22;38955;48.916;2.336;2023-07-30T07:31:20;19.70;99.00
53073;DHT22;38955;48.916;2.336;2023-07-30T07:33:22;19.90;98.60
53073;DHT22;38955;48.916;2.336;2023-07-30T07:35:24;20.10;98.60
53073;DHT22;38955;48.916;2.336;2023-07-30T07:37:28;20.10;97.90
53073;DHT22;38955;48.916;2.336;2023-07-30T07:39:30;20.20;98.30
53073;DHT22;38955;48.916;2.336;2023-07-30T07:41:32;20.00;98.20
53073;DHT22;38955;48.916;2.336;2023-07-30T07:43:34;19.90;97.80
53073;DHT22;38955;48.916;2.336;2023-07-30T07:45:36;19.90;98.10
53073;DHT22;38955;48.916;2.336;2023-07-30T07:47:39;19.90;98.00
53073;DHT22;38955;48.916;2.336;2023-07-30T07:49:41;19.70;97.30
53073;DHT22;38955;48.916;2.336;2023-07-30T07:51:43;19.70;97.80
53073;DHT22;38955;48.916;2.336;2023-07-30T07:53:46;19.70;97.70
53073;DHT22;38955;48.916;2.336;2023-07-30T07:55:48;19.90;97.40
53073;DHT22;38955;48.916;2.336;2023-07-30T07:57:50;20.10;97.80
53073;DHT22;38955;48.916;2.336;2023-07-30T07:59:52;20.30;97.50
53073;DHT22;38955;48.916;2.336;2023-07-30T08:01:55;20.30;97.50
53073;DHT22;38955;48.916;2.336;2023-07-30T08:03:57;20.10;96.80
53073;DHT22;38955;48.916;2.336;2023-07-30T08:05:59;20.10;97.40
53073;DHT22;38955;48.916;2.336;2023-07-30T08:08:01;20.20;97.60
53073;DHT22;38955;48.916;2.336;2023-07-30T08:10:06;20.30;97.60
53073;DHT22;38955;48.916;2.336;2023-07-30T08:12:08;20.20;97.10
53073;DHT22;38955;48.916;2.336;2023-07-30T08:14:10;20.20;96.80
53073;DHT22;38955;48.916;2.336;2023-07-30T08:16:13;20.20;97.00
53073;DHT22;38955;48.916;2.336;2023-07-30T08:18:15;20.30;97.10
53073;DHT22;38955;48.916;2.336;2023-07-30T08:20:17;20.50;96.80
53073;DHT22;38955;48.916;2.336;2023-07-30T08:22:19;20.60;96.40
53073;DHT22;38955;48.916;2.336;2023-07-30T08:24:21;21.00;96.40
53073;DHT22;38955;48.916;2.336;2023-07-30T08:26:25;21.10;96.30
53073;DHT22;38955;48.916;2.336;2023-07-30T08:28:27;21.30;95.40
53073;DHT22;38955;48.916;2.336;2023-07-30T08:30:29;21.50;95.40
53073;DHT22;38955;48.916;2.336;2023-07-30T08:32:33;21.50;94.90
53073;DHT22;38955;48.916;2.336;2023-07-30T08:34:35;21.40;95.40
53073;DHT22;38955;48.916;2.336;2023-07-30T08:36:37;21.50;95.50
53073;DHT22;38955;48.916;2.336;2023-07-30T08:38:40;21.60;95.30
53073;DHT22;38955;48.916;2.336;2023-07-30T08:40:42;21.40;95.10
53073;DHT22;38955;48.916;2.336;2023-07-30T08:42:46;21.50;95.30
53073;DHT22;38955;48.916;2.336;2023-07-30T08:44:48;21.60;95.20
53073;DHT22;38955;48.916;2.336;2023-07-30T08:46:51;21.60;95.00
53073;DHT22;38955;48.916;2.336;2023-07-30T08:48:57;21.50;94.90
53073;DHT22;38955;48.916;2.336;2023-07-30T08:50:59;21.60;94.90
53073;DHT22;38955;48.916;2.336;2023-07-30T08:53:03;21.40;95.00
53073;DHT22;38955;48.916;2.336;2023-07-30T08:55:06;21.40;95.00
53073;DHT22;38955;48.916;2.336;2023-07-30T08:57:09;21.30;95.00
53073;DHT22;38955;48.916;2.336;2023-07-30T08:59:15;21.30;95.20
53073;DHT22;38955;48.916;2.336;2023-07-30T09:01:18;21.50;94.90
53073;DHT22;38955;48.916;2.336;2023-07-30T09:03:22;21.40;95.00
53073;DHT22;38955;48.916;2.336;2023-07-30T09:05:26;21.40;94.80
53073;DHT22;38955;48.916;2.336;2023-07-30T09:07:31;21.30;94.50
53073;DHT22;38955;48.916;2.336;2023-07-30T09:09:33;21.30;94.10
53073;DHT22;38955;48.916;2.336;2023-07-30T09:11:35;21.20;93.80
53073;DHT22;38955;48.916;2.336;2023-07-30T09:13:38;21.40;94.40
53073;DHT22;38955;48.916;2.336;2023-07-30T09:15:42;21.30;94.50
53073;DHT22;38955;48.916;2.336;2023-07-30T09:17:45;21.30;94.50
53073;DHT22;38955;48.916;2.336;2023-07-30T09:19:47;21.30;94.60
53073;DHT22;38955;48.916;2.336;2023-07-30T09:21:49;21.30;94.50
53073;DHT22;38955;48.916;2.336;2023-07-30T09:23:51;21.30;94.00
53073;DHT22;38955;48.916;2.336;2023-07-30T09:25:58;21.30;94.30
53073;DHT22;38955;48.916;2.336;2023-07-30T09:28:00;21.50;94.40
53073;DHT22;38955;48.916;2.336;2023-07-30T09:30:03;21.50;93.80
53073;DHT22;38955;48.916;2.336;2023-07-30T09:32:10;21.50;93.40
53073;DHT22;38955;48.916;2.336;2023-07-30T09:34:15;21.70;93.60
53073;DHT22;38955;48.916;2.336;2023-07-30T09:36:19;21.80;93.50
53073;DHT22;38955;48.916;2.336;2023-07-30T09:38:21;21.90;93.40
53073;DHT22;38955;48.916;2.336;2023-07-30T09:40:31;22.00;93.50
53073;DHT22;38955;48.916;2.336;2023-07-30T09:42:33;22.00;93.40
53073;DHT22;38955;48.916;2.336;2023-07-30T09:44:38;21.90;93.30
53073;DHT22;38955;48.916;2.336;2023-07-30T09:46:45;21.80;93.30
53073;DHT22;38955;48.916;2.336;2023-07-30T09:48:49;21.80;93.20
53073;DHT22;38955;48.916;2.336;2023-07-30T09:50:51;21.70;93.50
53073;DHT22;38955;48.916;2.336;2023-07-30T09:52:54;21.60;93.60
53073;DHT22;38955;48.916;2.336;2023-07-30T09:54:57;21.50;93.60
53073;DHT22;38955;48.916;2.336;2023-07-30T09:56:59;21.40;93.60
53073;DHT22;38955;48.916;2.336;2023-07-30T09:59:01;21.30;93.50
53073;DHT22;38955;48.916;2.336;2023-07-30T10:01:04;21.30;93.80
53073;DHT22;38955;48.916;2.336;2023-07-30T10:03:07;21.30;93.10
53073;DHT22;38955;48.916;2.336;2023-07-30T10:05:14;21.30;93.70
53073;DHT22;38955;48.916;2.336;2023-07-30T10:07:20;21.20;93.20
53073;DHT22;38955;48.916;2.336;2023-07-30T10:09:25;21.10;93.50
53073;DHT22;38955;48.916;2.336;2023-07-30T10:11:30;21.00;93.30
53073;DHT22;38955;48.916;2.336;2023-07-30T10:13:33;21.00;93.10
53073;DHT22;38955;48.916;2.336;2023-07-30T10:15:36;21.10;93.40
53073;DHT22;38955;48.916;2.336;2023-07-30T10:17:39;21.20;93.10
53073;DHT22;38955;48.916;2.336;2023-07-30T10:19:41;21.20;92.60
53073;DHT22;38955;48.916;2.336;2023-07-30T10:21:44;21.40;92.80
53073;DHT22;38955;48.916;2.336;2023-07-30T10:23:48;21.50;92.10
53073;DHT22;38955;48.916;2.336;2023-07-30T10:25:52;21.60;92.00
53073;DHT22;38955;48.916;2.336;2023-07-30T10:27:54;21.70;91.50
53073;DHT22;38955;48.916;2.336;2023-07-30T10:30:10;21.70;92.80
53073;DHT22;38955;48.916;2.336;2023-07-30T10:32:12;21.70;91.40
53073;DHT22;38955;48.916;2.336;2023-07-30T10:34:14;22.00;92.00
53073;DHT22;38955;48.916;2.336;2023-07-30T10:36:18;21.90;91.80
53073;DHT22;38955;48.916;2.336;2023-07-30T10:38:29;22.00;91.50
53073;DHT22;38955;48.916;2.336;2023-07-30T10:40:38;22.20;91.20
53073;DHT22;38955;48.916;2.336;2023-07-30T10:42:45;22.30;90.90
53073;DHT22;38955;48.916;2.336;2023-07-30T10:44:52;22.10;87.80
53073;DHT22;38955;48.916;2.336;2023-07-30T10:47:01;22.20;90.40
53073;DHT22;38955;48.916;2.336;2023-07-30T10:49:04;22.20;90.60
53073;DHT22;38955;48.916;2.336;2023-07-30T10:51:09;22.20;90.00
53073;DHT22;38955;48.916;2.336;2023-07-30T10:53:12;22.10;89.60
53073;DHT22;38955;48.916;2.336;2023-07-30T10:55:15;22.10;90.10
53073;DHT22;38955;48.916;2.336;2023-07-30T10:57:17;22.30;90.10
53073;DHT22;38955;48.916;2.336;2023-07-30T10:59:19;22.30;90.00
53073;DHT22;38955;48.916;2.336;2023-07-30T11:01:24;22.40;91.00
53073;DHT22;38955;48.916;2.336;2023-07-30T11:03:32;22.60;90.30
53073;DHT22;38955;48.916;2.336;2023-07-30T11:05:38;22.80;90.10
53073;DHT22;38955;48.916;2.336;2023-07-30T11:07:49;22.70;89.50
53073;DHT22;38955;48.916;2.336;2023-07-30T11:10:00;22.70;89.10
53073;DHT22;38955;48.916;2.336;2023-07-30T11:12:08;22.90;90.00
53073;DHT22;38955;48.916;2.336;2023-07-30T11:14:15;23.10;88.20
53073;DHT22;38955;48.916;2.336;2023-07-30T11:16:17;23.20;86.10
53073;DHT22;38955;48.916;2.336;2023-07-30T11:18:19;23.40;86.00
53073;DHT22;38955;48.916;2.336;2023-07-30T11:20:22;23.60;84.90
53073;DHT22;38955;48.916;2.336;2023-07-30T11:22:31;23.30;82.50
53073;DHT22;38955;48.916;2.336;2023-07-30T11:24:34;23.30;84.20
53073;DHT22;38955;48.916;2.336;2023-07-30T11:26:36;23.40;84.70
53073;DHT22;38955;48.916;2.336;2023-07-30T11:28:40;23.50;85.10
53073;DHT22;38955;48.916;2.336;2023-07-30T11:30:42;23.60;85.60
53073;DHT22;38955;48.916;2.336;2023-07-30T11:32:45;23.50;86.00
53073;DHT22;38955;48.916;2.336;2023-07-30T11:34:47;23.40;86.60
53073;DHT22;38955;48.916;2.336;2023-07-30T11:36:49;23.20;86.20
53073;DHT22;38955;48.916;2.336;2023-07-30T11:38:52;23.20;86.60
53073;DHT22;38955;48.916;2.336;2023-07-30T11:40:57;23.20;86.30
53073;DHT22;38955;48.916;2.336;2023-07-30T11:43:00;23.20;85.20
53073;DHT22;38955;48.916;2.336;2023-07-30T11:47:29;23.10;84.60
53073;DHT22;38955;48.916;2.336;2023-07-30T11:49:31;23.30;83.70
53073;DHT22;38955;48.916;2.336;2023-07-30T11:51:33;23.40;83.00
53073;DHT22;38955;48.916;2.336;2023-07-30T11:53:46;23.50;84.10
53073;DHT22;38955;48.916;2.336;2023-07-30T11:55:49;23.50;83.60
53073;DHT22;38955;48.916;2.336;2023-07-30T11:57:51;23.30;83.80
53073;DHT22;38955;48.916;2.336;2023-07-30T11:59:54;23.20;83.70
53073;DHT22;38955;48.916;2.336;2023-07-30T12:01:57;23.10;84.30
53073;DHT22;38955;48.916;2.336;2023-07-30T12:04:02;23.10;85.10
53073;DHT22;38955;48.916;2.336;2023-07-30T12:06:05;23.00;84.90
53073;DHT22;38955;48.916;2.336;2023-07-30T12:08:13;23.10;85.30
53073;DHT22;38955;48.916;2.336;2023-07-30T12:10:17;23.10;84.30
53073;DHT22;38955;48.916;2.336;2023-07-30T12:12:25;23.00;83.40
53073;DHT22;38955;48.916;2.336;2023-07-30T12:14:27;23.10;83.80
53073;DHT22;38955;48.916;2.336;2023-07-30T12:16:33;23.20;83.10
53073;DHT22;38955;48.916;2.336;2023-07-30T12:18:35;23.30;84.40
53073;DHT22;38955;48.916;2.336;2023-07-30T12:20:39;23.30;82.80
53073;DHT22;38955;48.916;2.336;2023-07-30T12:22:41;23.30;83.60
53073;DHT22;38955;48.916;2.336;2023-07-30T12:24:45;23.40;83.30
53073;DHT22;38955;48.916;2.336;2023-07-30T12:26:47;23.40;82.80
53073;DHT22;38955;48.916;2.336;2023-07-30T12:28:49;23.40;83.20
53073;DHT22;38955;48.916;2.336;2023-07-30T12:30:52;23.20;83.00
53073;DHT22;38955;48.916;2.336;2023-07-30T12:32:54;23.20;83.80
53073;DHT22;38955;48.916;2.336;2023-07-30T12:34:56;23.30;84.10
53073;DHT22;38955;48.916;2.336;2023-07-30T12:37:00;23.30;82.90
53073;DHT22;38955;48.916;2.336;2023-07-30T12:39:02;23.20;82.00
53073;DHT22;38955;48.916;2.336;2023-07-30T12:41:05;23.20;83.60
53073;DHT22;38955;48.916;2.336;2023-07-30T12:43:07;23.10;83.70
53073;DHT22;38955;48.916;2.336;2023-07-30T12:45:11;23.30;84.10
53073;DHT22;38955;48.916;2.336;2023-07-30T12:47:13;23.30;84.10
53073;DHT22;38955;48.916;2.336;2023-07-30T12:49:15;23.40;84.70
53073;DHT22;38955;48.916;2.336;2023-07-30T12:51:17;23.50;81.50
53073;DHT22;38955;48.916;2.336;2023-07-30T12:53:20;23.60;81.60
53073;DHT22;38955;48.916;2.336;2023-07-30T12:55:22;23.60;82.50
53073;DHT22;38955;48.916;2.336;2023-07-30T12:57:24;23.70;82.70
53073;DHT22;38955;48.916;2.336;2023-07-30T12:59:26;23.70;82.10